Time;durP1;ratioP1;P1;durP2;ratioP2;P2;SDS_P1;SDS_P2;PMS_P1;PMS_P2;Temp;Humidity;BMP_temperature;BMP_pressure;BME280_temperature;BME280_humidity;BME280_pressure;Samples;Min_cycle;Max_cycle;Signal;HPM_P1;HPM_P2
2023/12/18 00:00:07;;;;;;;;;;;17.10;54.50;;;;;;5066953;28;42891;-79
2023/12/18 00:02:33;;;;;;;;;;;17.20;54.50;;;;;;5066435;28;43096;-76
2023/12/18 00:04:58;;;;;;;;;;;17.20;55.20;;;;;;5045549;28;43046;-79
2023/12/18 00:07:24;;;;;;;;;;;17.20;54.60;;;;;;5065645;28;42985;-79
2023/12/18 00:09:49;;;;;;;;;;;17.10;54.50;;;;;;5065961;28;43366;-79
2023/12/18 00:12:15;;;;;;;;;;;17.10;54.50;;;;;;5066755;28;42976;-80
2023/12/18 00:14:40;;;;;;;;;;;17.10;55.10;;;;;;5066739;28;42889;-80
2023/12/18 00:17:06;;;;;;;;;;;17.20;55.10;;;;;;5066282;28;42958;-80
2023/12/18 00:19:31;;;;;;;;;;;17.20;54.50;;;;;;5066223;28;43515;-77
2023/12/18 00:21:57;;;;;;;;;;;17.20;54.50;;;;;;5066947;28;42902;-80
2023/12/18 00:24:22;;;;;;;;;;;17.20;54.50;;;;;;5066302;28;43806;-79
2023/12/18 00:26:48;;;;;;;;;;;17.20;54.50;;;;;;5066333;28;42912;-80
2023/12/18 00:29:13;;;;;;;;;;;17.20;55.10;;;;;;5066201;28;42926;-78
2023/12/18 00:31:39;;;;;;;;;;;17.20;55.10;;;;;;5066391;28;42942;-77
2023/12/18 00:34:04;;;;;;;;;;;17.20;54.50;;;;;;5065865;28;43544;-79
2023/12/18 00:36:30;;;;;;;;;;;17.10;54.50;;;;;;5066397;28;42950;-80
2023/12/18 00:38:55;;;;;;;;;;;17.20;55.20;;;;;;5066373;28;42993;-79
2023/12/18 00:41:21;;;;;;;;;;;17.20;54.60;;;;;;5064351;28;42899;-80
2023/12/18 00:43:46;;;;;;;;;;;17.10;55.10;;;;;;5044970;28;43355;-79
2023/12/18 00:46:12;;;;;;;;;;;17.20;54.60;;;;;;5062427;28;43022;-78
2023/12/18 00:48:38;;;;;;;;;;;17.20;54.60;;;;;;5063700;28;42958;-80
2023/12/18 00:51:03;;;;;;;;;;;17.20;55.20;;;;;;5047282;28;42934;-81
2023/12/18 00:53:29;;;;;;;;;;;17.20;54.60;;;;;;5046295;28;44932;-80
2023/12/18 00:55:54;;;;;;;;;;;17.10;54.40;;;;;;5064524;28;42936;-80
2023/12/18 00:58:20;;;;;;;;;;;17.00;54.30;;;;;;5065550;28;42958;-78
2023/12/18 01:00:45;;;;;;;;;;;17.10;55.00;;;;;;5063233;28;42979;-80
2023/12/18 01:03:11;;;;;;;;;;;17.20;55.00;;;;;;5064970;28;43552;-78
2023/12/18 01:05:36;;;;;;;;;;;17.10;54.50;;;;;;5065721;28;42937;-79
2023/12/18 01:08:02;;;;;;;;;;;17.20;54.50;;;;;;5072897;28;44084;-81
2023/12/18 01:10:27;;;;;;;;;;;17.10;54.50;;;;;;5063338;28;43013;-81
2023/12/18 01:12:53;;;;;;;;;;;17.10;55.10;;;;;;5062407;28;42984;-79
2023/12/18 01:15:19;;;;;;;;;;;17.10;55.00;;;;;;5065405;28;42924;-81
2023/12/18 01:17:44;;;;;;;;;;;17.20;54.70;;;;;;5045880;28;44686;-80
2023/12/18 01:20:10;;;;;;;;;;;17.30;55.20;;;;;;5064801;28;43044;-80
2023/12/18 01:22:35;;;;;;;;;;;17.00;54.40;;;;;;5066145;28;43999;-78
2023/12/18 01:25:02;;;;;;;;;;;17.10;55.00;;;;;;5064978;28;43005;-79
2023/12/18 01:27:27;;;;;;;;;;;17.20;54.60;;;;;;5063360;28;43640;-80
2023/12/18 01:29:53;;;;;;;;;;;17.10;55.20;;;;;;5064299;28;43017;-80
2023/12/18 01:32:18;;;;;;;;;;;17.10;55.10;;;;;;5065413;28;42871;-80
2023/12/18 01:34:44;;;;;;;;;;;17.10;55.10;;;;;;5046774;28;43120;-79
2023/12/18 01:37:10;;;;;;;;;;;17.10;55.10;;;;;;5063889;28;43256;-80
2023/12/18 01:39:36;;;;;;;;;;;17.20;54.60;;;;;;5064781;28;43009;-80
2023/12/18 01:42:02;;;;;;;;;;;17.10;54.50;;;;;;5065411;28;43247;-81
2023/12/18 01:44:28;;;;;;;;;;;17.20;54.60;;;;;;5065861;28;43046;-80
2023/12/18 01:46:55;;;;;;;;;;;17.10;55.10;;;;;;5064166;28;42860;-80
2023/12/18 01:49:20;;;;;;;;;;;17.10;54.50;;;;;;5063445;28;43020;-80
2023/12/18 01:51:46;;;;;;;;;;;17.10;54.50;;;;;;5064545;28;42994;-80
2023/12/18 01:54:12;;;;;;;;;;;17.10;55.10;;;;;;5065211;28;42985;-80
2023/12/18 01:56:38;;;;;;;;;;;17.10;55.10;;;;;;5064151;28;43645;-80
2023/12/18 01:59:05;;;;;;;;;;;17.10;55.10;;;;;;5064708;28;43216;-81
2023/12/18 02:01:31;;;;;;;;;;;17.10;55.00;;;;;;5064399;28;43096;-80
2023/12/18 02:03:57;;;;;;;;;;;17.10;55.10;;;;;;5063657;28;42891;-81
2023/12/18 02:06:23;;;;;;;;;;;17.90;55.50;;;;;;5063548;28;42921;-80
2023/12/18 02:08:48;;;;;;;;;;;17.10;55.10;;;;;;5062026;28;44334;-79
2023/12/18 02:11:14;;;;;;;;;;;17.10;54.50;;;;;;5060853;28;43078;-80
2023/12/18 02:13:40;;;;;;;;;;;17.10;55.20;;;;;;5062613;28;43018;-79
2023/12/18 02:16:06;;;;;;;;;;;16.90;55.00;;;;;;5063702;28;43283;-80
2023/12/18 02:18:31;;;;;;;;;;;17.10;55.20;;;;;;5063798;28;42974;-80
2023/12/18 02:20:57;;;;;;;;;;;17.00;55.20;;;;;;5063558;28;43108;-80
2023/12/18 02:23:23;;;;;;;;;;;17.20;55.20;;;;;;5063082;28;42966;-80
2023/12/18 02:25:48;;;;;;;;;;;17.10;55.10;;;;;;5064590;28;43594;-80
2023/12/18 02:28:15;;;;;;;;;;;17.10;54.50;;;;;;5064958;28;43012;-80
2023/12/18 02:30:40;;;;;;;;;;;17.10;55.00;;;;;;5064115;28;42996;-78
2023/12/18 02:33:06;;;;;;;;;;;17.10;55.10;;;;;;5062473;28;42939;-80
2023/12/18 02:35:31;;;;;;;;;;;17.10;54.40;;;;;;5062957;28;43427;-79
2023/12/18 02:37:57;;;;;;;;;;;17.20;54.50;;;;;;5062996;28;42925;-80
2023/12/18 02:40:24;;;;;;;;;;;17.10;54.90;;;;;;5059448;28;43528;-78
2023/12/18 02:42:50;;;;;;;;;;;17.10;54.80;;;;;;5059439;28;43126;-80
2023/12/18 02:45:15;;;;;;;;;;;17.20;54.50;;;;;;5062865;28;43450;-81
2023/12/18 02:47:41;;;;;;;;;;;17.30;54.40;;;;;;5063449;28;43210;-81
2023/12/18 02:50:07;;;;;;;;;;;17.20;54.40;;;;;;5061269;28;43972;-81
2023/12/18 02:52:32;;;;;;;;;;;17.30;54.90;;;;;;5042949;28;43353;-80
2023/12/18 02:54:59;;;;;;;;;;;17.10;55.00;;;;;;5061069;28;43148;-80
2023/12/18 02:57:24;;;;;;;;;;;17.20;55.00;;;;;;5059143;28;43219;-80
2023/12/18 02:59:50;;;;;;;;;;;17.20;54.40;;;;;;5063820;28;43897;-80
2023/12/18 03:02:15;;;;;;;;;;;17.20;54.50;;;;;;5045041;28;42868;-80
2023/12/18 03:04:41;;;;;;;;;;;17.10;54.90;;;;;;5063389;28;44331;-79
2023/12/18 03:07:07;;;;;;;;;;;17.30;54.70;;;;;;5064980;28;42891;-79
2023/12/18 03:09:32;;;;;;;;;;;17.10;54.60;;;;;;5064244;28;43293;-79
2023/12/18 03:11:58;;;;;;;;;;;17.10;54.50;;;;;;5063654;28;42973;-79
2023/12/18 03:14:23;;;;;;;;;;;17.10;54.90;;;;;;5063434;28;42892;-80
2023/12/18 03:16:49;;;;;;;;;;;17.10;54.90;;;;;;5062367;28;42932;-78
2023/12/18 03:19:15;;;;;;;;;;;17.10;54.50;;;;;;5063196;28;42986;-80
2023/12/18 03:21:41;;;;;;;;;;;17.20;54.50;;;;;;5045800;28;43052;-79
2023/12/18 03:24:07;;;;;;;;;;;17.20;55.10;;;;;;5062802;28;42977;-79
2023/12/18 03:26:32;;;;;;;;;;;17.10;54.90;;;;;;5071523;28;43497;-80
2023/12/18 03:28:58;;;;;;;;;;;17.10;55.00;;;;;;5068259;28;42969;-80
2023/12/18 03:31:23;;;;;;;;;;;17.20;54.70;;;;;;5066498;28;44018;-80
2023/12/18 03:33:49;;;;;;;;;;;17.10;55.10;;;;;;5067687;28;43619;-80
2023/12/18 03:36:14;;;;;;;;;;;17.10;55.00;;;;;;5066922;28;42868;-79
2023/12/18 03:38:40;;;;;;;;;;;17.10;54.50;;;;;;5048999;28;43228;-80
2023/12/18 03:41:05;;;;;;;;;;;17.20;55.30;;;;;;5064905;28;42917;-80
2023/12/18 03:43:31;;;;;;;;;;;17.20;55.20;;;;;;5066941;28;43534;-80
2023/12/18 03:45:56;;;;;;;;;;;17.10;54.50;;;;;;5066996;28;42776;-79
2023/12/18 03:48:22;;;;;;;;;;;17.10;55.20;;;;;;5065819;28;43089;-80
2023/12/18 03:50:47;;;;;;;;;;;17.20;54.60;;;;;;5065522;28;43076;-79
2023/12/18 03:53:13;;;;;;;;;;;17.10;54.60;;;;;;5064539;28;43836;-81
2023/12/18 03:55:39;;;;;;;;;;;17.10;54.70;;;;;;5065505;28;43051;-81
2023/12/18 03:58:05;;;;;;;;;;;17.10;55.20;;;;;;5061766;28;42958;-81
2023/12/18 04:00:30;;;;;;;;;;;17.00;54.70;;;;;;5067280;28;43023;-80
2023/12/18 04:02:56;;;;;;;;;;;17.20;54.80;;;;;;5065982;28;42960;-81
2023/12/18 04:05:24;;;;;;;;;;;17.10;55.40;;;;;;5061784;28;43148;-81
2023/12/18 04:07:50;;;;;;;;;;;17.30;55.40;;;;;;5066035;28;43510;-80
2023/12/18 04:10:15;;;;;;;;;;;17.00;54.60;;;;;;5067380;28;43163;-80
2023/12/18 04:12:41;;;;;;;;;;;17.10;55.00;;;;;;5063967;28;43664;-79
2023/12/18 04:15:07;;;;;;;;;;;17.00;55.00;;;;;;5064940;28;43392;-80
2023/12/18 04:17:32;;;;;;;;;;;17.10;55.00;;;;;;5065313;28;43345;-81
2023/12/18 04:19:58;;;;;;;;;;;17.40;55.30;;;;;;5066635;28;42886;-80
2023/12/18 04:22:23;;;;;;;;;;;17.00;54.50;;;;;;5066938;28;43607;-80
2023/12/18 04:24:49;;;;;;;;;;;17.10;55.20;;;;;;5065551;28;42970;-79
2023/12/18 04:27:24;;;;;;;;;;;17.00;55.10;;;;;;5064058;28;43376;-76
2023/12/18 04:29:49;;;;;;;;;;;17.00;54.50;;;;;;5062950;28;43125;-80
2023/12/18 04:32:15;;;;;;;;;;;17.20;54.60;;;;;;5066036;28;43054;-75
2023/12/18 04:34:41;;;;;;;;;;;17.00;54.50;;;;;;5066637;28;42954;-79
2023/12/18 04:37:07;;;;;;;;;;;17.00;54.60;;;;;;5065149;28;43546;-80
2023/12/18 04:39:33;;;;;;;;;;;18.80;56.10;;;;;;5063171;28;43001;-78
2023/12/18 04:41:58;;;;;;;;;;;17.00;54.70;;;;;;5045539;28;42985;-80
2023/12/18 04:44:24;;;;;;;;;;;17.00;54.60;;;;;;5067168;28;42966;-78
2023/12/18 04:46:50;;;;;;;;;;;16.80;54.50;;;;;;5064127;28;43345;-78
2023/12/18 04:49:15;;;;;;;;;;;17.00;54.50;;;;;;5065879;28;42957;-78
2023/12/18 04:51:41;;;;;;;;;;;17.00;55.20;;;;;;5063092;28;44369;-80
2023/12/18 04:54:06;;;;;;;;;;;17.00;54.70;;;;;;5066107;28;42985;-79
2023/12/18 04:56:32;;;;;;;;;;;17.00;55.10;;;;;;5063223;28;43352;-77
2023/12/18 04:58:58;;;;;;;;;;;17.00;55.00;;;;;;5064497;28;43061;-78
2023/12/18 05:01:24;;;;;;;;;;;17.10;55.20;;;;;;5064474;28;43919;-76
2023/12/18 05:03:51;;;;;;;;;;;17.10;54.90;;;;;;5043360;28;43286;-77
2023/12/18 05:06:23;;;;;;;;;;;17.10;54.70;;;;;;5067359;28;42895;-76
2023/12/18 05:08:49;;;;;;;;;;;17.20;54.80;;;;;;5066370;28;42928;-78
2023/12/18 05:11:18;;;;;;;;;;;17.00;54.70;;;;;;5064166;28;43486;-79
2023/12/18 05:13:44;;;;;;;;;;;17.10;54.60;;;;;;5062222;28;43137;-80
2023/12/18 05:16:10;;;;;;;;;;;17.00;55.20;;;;;;5066253;28;43764;-80
2023/12/18 05:18:36;;;;;;;;;;;16.90;54.60;;;;;;5065575;28;42886;-80
2023/12/18 05:21:02;;;;;;;;;;;17.00;55.30;;;;;;5062284;28;43474;-79
2023/12/18 05:23:28;;;;;;;;;;;17.00;55.10;;;;;;5064153;28;42990;-80
2023/12/18 05:25:53;;;;;;;;;;;17.00;54.70;;;;;;5057984;28;43419;-78
2023/12/18 05:28:19;;;;;;;;;;;13.10;53.20;;;;;;5059772;28;43023;-78
2023/12/18 05:30:44;;;;;;;;;;;17.00;55.30;;;;;;5059904;28;43470;-77
2023/12/18 05:33:10;;;;;;;;;;;16.90;54.70;;;;;;5065673;28;42953;-78
2023/12/18 05:35:35;;;;;;;;;;;17.10;54.80;;;;;;5065467;28;43500;-78
2023/12/18 05:38:01;;;;;;;;;;;17.00;54.80;;;;;;5061583;28;42940;-77
2023/12/18 05:40:26;;;;;;;;;;;17.00;55.10;;;;;;5065701;28;42981;-77
2023/12/18 05:42:52;;;;;;;;;;;17.00;54.50;;;;;;5060333;28;43082;-77
2023/12/18 05:45:17;;;;;;;;;;;17.00;54.90;;;;;;5068790;28;43181;-79
2023/12/18 05:47:43;;;;;;;;;;;17.00;55.60;;;;;;5064327;28;42930;-77
2023/12/18 05:50:09;;;;;;;;;;;17.10;54.80;;;;;;5064962;28;42880;-78
2023/12/18 05:52:34;;;;;;;;;;;17.00;55.40;;;;;;5065093;28;42821;-78
2023/12/18 05:55:00;;;;;;;;;;;17.00;54.80;;;;;;5062850;28;43579;-78
2023/12/18 05:57:25;;;;;;;;;;;17.10;54.70;;;;;;5063887;28;42969;-80
2023/12/18 05:59:51;;;;;;;;;;;17.00;55.40;;;;;;5062471;28;43580;-79
2023/12/18 06:02:16;;;;;;;;;;;17.00;55.30;;;;;;5065154;28;43021;-80
2023/12/18 06:04:43;;;;;;;;;;;17.00;54.90;;;;;;5065503;28;43001;-78
2023/12/18 06:07:09;;;;;;;;;;;17.00;55.50;;;;;;5064954;28;43023;-78
2023/12/18 06:09:35;;;;;;;;;;;17.00;55.40;;;;;;5062906;28;43621;-77
2023/12/18 06:12:00;;;;;;;;;;;17.00;54.90;;;;;;5058270;28;43066;-75
2023/12/18 06:14:26;;;;;;;;;;;16.90;48.10;;;;;;5057072;28;43566;-78
2023/12/18 06:16:52;;;;;;;;;;;16.70;45.40;;;;;;5065043;28;42994;-78
2023/12/18 06:19:17;;;;;;;;;;;16.50;43.60;;;;;;5058069;28;42926;-79
2023/12/18 06:21:43;;;;;;;;;;;16.20;42.10;;;;;;5060690;28;42962;-79
2023/12/18 06:24:08;;;;;;;;;;;16.10;42.30;;;;;;5065166;28;43509;-78
2023/12/18 06:26:34;;;;;;;;;;;16.00;41.60;;;;;;5064981;28;43096;-77
2023/12/18 06:28:59;;;;;;;;;;;15.80;41.80;;;;;;5064632;28;43728;-79
2023/12/18 06:31:25;;;;;;;;;;;15.70;40.80;;;;;;5063916;28;42981;-79
2023/12/18 06:33:50;;;;;;;;;;;15.50;40.40;;;;;;5047439;28;43494;-80
2023/12/18 06:36:19;;;;;;;;;;;15.40;40.30;;;;;;5024694;28;43116;-81
2023/12/18 06:38:48;;;;;;;;;;;15.40;40.60;;;;;;5043294;28;43085;-80
2023/12/18 06:41:13;;;;;;;;;;;15.30;40.50;;;;;;5042871;28;42920;-80
2023/12/18 06:43:39;;;;;;;;;;;15.30;40.90;;;;;;5041955;28;43494;-80
2023/12/18 06:46:05;;;;;;;;;;;15.30;41.50;;;;;;5042845;28;43050;-81
2023/12/18 06:48:32;;;;;;;;;;;15.20;41.00;;;;;;5042381;28;43555;-79
2023/12/18 06:50:57;;;;;;;;;;;15.20;41.20;;;;;;5044316;28;42853;-79
2023/12/18 06:53:23;;;;;;;;;;;15.10;41.00;;;;;;5044658;28;42915;-80
2023/12/18 06:55:48;;;;;;;;;;;15.00;41.40;;;;;;5044262;28;42943;-79
2023/12/18 06:58:14;;;;;;;;;;;15.00;40.90;;;;;;5045267;28;43676;-81
2023/12/18 07:00:40;;;;;;;;;;;15.00;41.40;;;;;;5045269;28;42800;-77
2023/12/18 07:03:06;;;;;;;;;;;15.00;41.40;;;;;;5026044;28;44417;-79
2023/12/18 07:05:31;;;;;;;;;;;15.00;40.90;;;;;;5044718;28;42972;-81
2023/12/18 07:07:57;;;;;;;;;;;15.00;40.80;;;;;;5027341;28;43125;-80
2023/12/18 07:10:22;;;;;;;;;;;14.90;41.30;;;;;;5045378;28;43038;-78
2023/12/18 07:12:48;;;;;;;;;;;14.80;41.40;;;;;;5026899;28;44375;-79
2023/12/18 07:15:14;;;;;;;;;;;14.70;41.00;;;;;;5044601;28;42988;-79
2023/12/18 07:17:39;;;;;;;;;;;14.80;41.60;;;;;;5044848;28;42888;-79
2023/12/18 07:20:06;;;;;;;;;;;14.60;40.80;;;;;;5044643;28;42904;-79
2023/12/18 07:22:35;;;;;;;;;;;14.70;41.10;;;;;;5044373;28;42970;-78
2023/12/18 07:25:01;;;;;;;;;;;14.70;41.20;;;;;;5044918;28;42998;-79
2023/12/18 07:27:27;;;;;;;;;;;14.70;41.80;;;;;;5043536;28;42787;-78
2023/12/18 07:29:52;;;;;;;;;;;14.70;41.20;;;;;;5045222;28;42971;-76
2023/12/18 07:32:18;;;;;;;;;;;14.60;41.80;;;;;;5044604;28;43437;-79
2023/12/18 07:34:43;;;;;;;;;;;14.70;41.40;;;;;;5045029;28;42903;-75
2023/12/18 07:37:09;;;;;;;;;;;14.70;42.00;;;;;;5044425;28;43764;-77
2023/12/18 07:39:35;;;;;;;;;;;14.60;42.10;;;;;;5044004;28;43040;-80
2023/12/18 07:42:01;;;;;;;;;;;14.60;42.10;;;;;;5044661;28;43633;-75
2023/12/18 07:44:26;;;;;;;;;;;14.60;41.80;;;;;;5044912;28;42970;-79
2023/12/18 07:46:52;;;;;;;;;;;14.60;42.20;;;;;;5043740;28;43504;-79
2023/12/18 07:49:18;;;;;;;;;;;14.50;42.10;;;;;;5044781;28;43002;-79
2023/12/18 07:51:43;;;;;;;;;;;14.70;42.10;;;;;;5044097;28;42855;-80
2023/12/18 07:54:09;;;;;;;;;;;14.60;42.20;;;;;;5044756;28;42855;-80
2023/12/18 07:56:34;;;;;;;;;;;14.60;42.10;;;;;;5043793;28;43605;-78
2023/12/18 07:59:00;;;;;;;;;;;14.70;42.60;;;;;;5044717;28;42927;-79
2023/12/18 08:01:25;;;;;;;;;;;14.60;42.20;;;;;;5054590;28;42911;-80
2023/12/18 08:03:51;;;;;;;;;;;14.60;42.70;;;;;;5050990;28;42937;-80
2023/12/18 08:06:17;;;;;;;;;;;14.50;42.30;;;;;;5045298;28;43366;-80
2023/12/18 08:08:43;;;;;;;;;;;14.60;42.20;;;;;;5044245;28;42856;-80
2023/12/18 08:11:09;;;;;;;;;;;14.70;42.20;;;;;;5026254;28;44099;-80
2023/12/18 08:13:38;;;;;;;;;;;14.60;42.30;;;;;;5044447;28;42901;-80
2023/12/18 08:16:04;;;;;;;;;;;14.60;42.40;;;;;;5045550;28;42975;-79
2023/12/18 08:18:30;;;;;;;;;;;14.40;42.30;;;;;;5047239;28;42974;-79
2023/12/18 08:20:56;;;;;;;;;;;14.60;42.90;;;;;;5046771;28;42918;-79
2023/12/18 08:23:22;;;;;;;;;;;14.50;42.80;;;;;;5047489;28;42954;-79
2023/12/18 08:25:47;;;;;;;;;;;14.50;42.50;;;;;;5047201;28;43899;-79
2023/12/18 08:28:13;;;;;;;;;;;14.60;43.10;;;;;;5047252;28;42942;-78
2023/12/18 08:30:38;;;;;;;;;;;14.50;43.20;;;;;;5047261;28;43704;-80
2023/12/18 08:33:04;;;;;;;;;;;14.60;43.00;;;;;;5047643;28;42927;-78
2023/12/18 08:35:30;;;;;;;;;;;14.80;43.10;;;;;;5047536;28;42838;-79
2023/12/18 08:37:55;;;;;;;;;;;14.60;43.20;;;;;;5047454;28;42981;-79
2023/12/18 08:40:21;;;;;;;;;;;14.50;44.10;;;;;;5047146;28;43041;-79
2023/12/18 08:42:46;;;;;;;;;;;14.50;43.20;;;;;;5046827;28;42867;-79
2023/12/18 08:45:12;;;;;;;;;;;14.50;44.00;;;;;;5046777;28;43511;-79
2023/12/18 08:47:37;;;;;;;;;;;14.70;43.60;;;;;;5046687;28;42932;-79
2023/12/18 08:50:03;;;;;;;;;;;14.50;43.60;;;;;;5029123;28;43926;-78
2023/12/18 08:52:29;;;;;;;;;;;14.60;43.70;;;;;;5046663;28;42924;-79
2023/12/18 08:54:54;;;;;;;;;;;14.70;43.90;;;;;;5046814;28;43450;-79
2023/12/18 08:57:20;;;;;;;;;;;14.70;43.90;;;;;;5046495;28;42947;-79
2023/12/18 08:59:45;;;;;;;;;;;14.70;44.00;;;;;;5046430;28;43600;-79
2023/12/18 09:02:11;;;;;;;;;;;14.60;44.40;;;;;;5046615;28;43101;-79
2023/12/18 09:04:36;;;;;;;;;;;14.70;44.50;;;;;;5046384;28;43528;-76
2023/12/18 09:07:02;;;;;;;;;;;14.60;44.10;;;;;;5046077;28;43004;-79
2023/12/18 09:09:27;;;;;;;;;;;14.70;44.30;;;;;;5046115;28;43069;-79
2023/12/18 09:11:53;;;;;;;;;;;14.70;44.30;;;;;;5046838;28;42919;-79
2023/12/18 09:14:19;;;;;;;;;;;14.80;44.80;;;;;;5046658;28;43025;-80
2023/12/18 09:16:45;;;;;;;;;;;14.70;44.50;;;;;;5046260;28;43014;-79
2023/12/18 09:19:10;;;;;;;;;;;14.80;45.30;;;;;;5046194;28;43659;-79
2023/12/18 09:21:36;;;;;;;;;;;14.80;45.20;;;;;;5046689;28;42970;-80
2023/12/18 09:24:01;;;;;;;;;;;14.90;45.10;;;;;;5046552;28;43005;-80
2023/12/18 09:26:27;;;;;;;;;;;14.80;45.70;;;;;;5046308;28;42944;-80
2023/12/18 09:28:52;;;;;;;;;;;14.80;45.50;;;;;;5046390;28;43685;-80
2023/12/18 09:31:18;;;;;;;;;;;14.80;45.60;;;;;;5046694;28;43053;-80
2023/12/18 09:33:44;;;;;;;;;;;15.00;45.80;;;;;;5046554;28;42847;-79
2023/12/18 09:36:10;;;;;;;;;;;14.90;46.40;;;;;;5028132;28;43043;-78
2023/12/18 09:38:36;;;;;;;;;;;14.90;45.90;;;;;;5046134;28;42887;-79
2023/12/18 09:41:02;;;;;;;;;;;14.90;46.00;;;;;;5046219;28;42986;-80
2023/12/18 09:43:28;;;;;;;;;;;14.90;46.50;;;;;;5045623;28;43283;-78
2023/12/18 09:45:54;;;;;;;;;;;15.00;46.20;;;;;;5046017;28;42942;-79
2023/12/18 09:48:20;;;;;;;;;;;14.90;46.10;;;;;;5045625;28;43989;-80
2023/12/18 09:50:46;;;;;;;;;;;14.80;46.60;;;;;;5045521;28;42971;-79
2023/12/18 09:53:17;;;;;;;;;;;14.90;46.00;;;;;;5046359;28;43549;-79
2023/12/18 09:55:44;;;;;;;;;;;15.00;46.00;;;;;;5045913;28;42978;-79
2023/12/18 09:58:11;;;;;;;;;;;15.00;46.50;;;;;;5045998;28;43562;-78
2023/12/18 10:00:37;;;;;;;;;;;15.20;46.20;;;;;;5046030;28;42936;-79
2023/12/18 10:03:02;;;;;;;;;;;15.00;46.60;;;;;;5045349;28;42956;-80
2023/12/18 10:05:29;;;;;;;;;;;15.00;46.60;;;;;;5045648;28;42816;-78
2023/12/18 10:07:55;;;;;;;;;;;15.00;46.20;;;;;;5045462;28;42989;-80
2023/12/18 10:10:21;;;;;;;;;;;15.10;46.20;;;;;;5045374;28;42717;-79
2023/12/18 10:12:47;;;;;;;;;;;15.10;46.60;;;;;;5045755;28;42801;-78
2023/12/18 10:15:14;;;;;;;;;;;15.10;46.60;;;;;;5048459;28;42840;-78
2023/12/18 10:17:40;;;;;;;;;;;15.20;46.20;;;;;;5049360;28;42943;-79
2023/12/18 10:20:07;;;;;;;;;;;15.10;46.20;;;;;;5027885;28;42998;-79
2023/12/18 10:22:33;;;;;;;;;;;15.40;46.30;;;;;;5045268;28;43889;-79
2023/12/18 10:24:58;;;;;;;;;;;15.20;46.20;;;;;;5045740;28;42919;-80
2023/12/18 10:27:24;;;;;;;;;;;15.10;46.60;;;;;;5045083;28;43348;-80
2023/12/18 10:29:50;;;;;;;;;;;15.20;46.60;;;;;;5045064;28;42820;-78
2023/12/18 10:32:20;;;;;;;;;;;15.40;46.30;;;;;;5045306;28;43489;-80
2023/12/18 10:34:46;;;;;;;;;;;15.20;46.90;;;;;;5045196;28;42957;-79
2023/12/18 10:37:11;;;;;;;;;;;14.00;46.40;;;;;;5044992;28;42965;-80
2023/12/18 10:39:40;;;;;;;;;;;15.10;47.50;;;;;;5044897;28;42916;-79
2023/12/18 10:42:10;;;;;;;;;;;15.10;48.10;;;;;;5044472;28;44033;-80
2023/12/18 10:44:36;;;;;;;;;;;15.20;48.70;;;;;;5044879;28;42966;-80
2023/12/18 10:47:03;;;;;;;;;;;15.30;48.90;;;;;;5044345;28;43474;-80
2023/12/18 10:49:31;;;;;;;;;;;15.30;48.80;;;;;;5026333;28;43025;-78
2023/12/18 10:51:57;;;;;;;;;;;15.20;49.10;;;;;;5044721;28;44414;-79
2023/12/18 10:54:23;;;;;;;;;;;15.30;48.60;;;;;;5045141;28;43180;-78
2023/12/18 10:56:50;;;;;;;;;;;15.30;48.80;;;;;;5044772;28;42812;-80
2023/12/18 10:59:17;;;;;;;;;;;15.30;48.50;;;;;;5044902;28;43145;-79
2023/12/18 11:01:44;;;;;;;;;;;15.20;47.40;;;;;;5045414;28;43264;-79
2023/12/18 11:04:09;;;;;;;;;;;15.20;47.30;;;;;;5045219;28;42833;-80
2023/12/18 11:06:35;;;;;;;;;;;15.20;47.00;;;;;;5043739;28;42994;-79
2023/12/18 11:09:01;;;;;;;;;;;15.20;47.30;;;;;;5044465;28;42988;-79
2023/12/18 11:11:27;;;;;;;;;;;15.20;46.40;;;;;;5043896;28;43554;-79
2023/12/18 11:14:22;;;;;;;;;;;15.30;46.30;;;;;;5045065;28;43219;-79
2023/12/18 11:16:53;;;;;;;;;;;15.20;45.30;;;;;;5023204;28;42894;-79
2023/12/18 11:19:37;;;;;;;;;;;15.20;45.00;;;;;;5044981;28;42887;-79
2023/12/18 11:22:06;;;;;;;;;;;15.20;45.70;;;;;;5044530;28;42911;-79
2023/12/18 11:24:37;;;;;;;;;;;15.30;45.60;;;;;;5043773;28;43129;-80
2023/12/18 11:27:06;;;;;;;;;;;15.20;45.20;;;;;;5043980;28;43003;-80
2023/12/18 11:29:45;;;;;;;;;;;15.20;45.60;;;;;;5044093;28;43677;-79
2023/12/18 11:32:14;;;;;;;;;;;15.30;45.10;;;;;;5044570;28;42941;-80
2023/12/18 11:34:40;;;;;;;;;;;15.20;45.40;;;;;;5026433;28;43018;-79
2023/12/18 11:37:07;;;;;;;;;;;15.30;44.90;;;;;;5044817;28;43694;-79
2023/12/18 11:39:39;;;;;;;;;;;15.30;44.90;;;;;;5044429;28;43022;-79
2023/12/18 11:42:06;;;;;;;;;;;15.30;44.90;;;;;;5044082;28;43981;-79
2023/12/18 11:44:33;;;;;;;;;;;15.20;45.20;;;;;;5044046;28;42888;-80
2023/12/18 11:46:59;;;;;;;;;;;15.30;45.40;;;;;;5044346;28;42825;-79
2023/12/18 11:49:24;;;;;;;;;;;15.30;45.40;;;;;;5045441;28;42882;-79
2023/12/18 11:51:50;;;;;;;;;;;15.30;45.50;;;;;;5047447;28;42959;-79
2023/12/18 11:54:15;;;;;;;;;;;15.30;45.00;;;;;;5048012;28;42867;-79
2023/12/18 11:56:42;;;;;;;;;;;15.30;45.20;;;;;;5047685;28;42907;-80
2023/12/18 11:59:08;;;;;;;;;;;15.30;45.70;;;;;;5047419;28;42867;-78
2023/12/18 12:01:33;;;;;;;;;;;15.30;45.60;;;;;;5046852;28;42938;-79
2023/12/18 12:03:59;;;;;;;;;;;15.20;45.10;;;;;;5047150;28;42998;-77
2023/12/18 12:06:26;;;;;;;;;;;15.50;45.10;;;;;;5046937;28;43357;-76
2023/12/18 12:08:51;;;;;;;;;;;15.40;45.00;;;;;;5047828;28;42951;-78
2023/12/18 12:11:18;;;;;;;;;;;15.60;45.20;;;;;;5047402;28;43944;-78
2023/12/18 12:13:45;;;;;;;;;;;15.30;45.10;;;;;;5047284;28;42951;-79
2023/12/18 12:16:15;;;;;;;;;;;15.50;45.30;;;;;;5047378;28;43097;-78
2023/12/18 12:18:47;;;;;;;;;;;15.60;45.70;;;;;;5046955;28;42776;-78
2023/12/18 12:21:13;;;;;;;;;;;15.30;45.10;;;;;;5047410;28;42795;-78
2023/12/18 12:23:39;;;;;;;;;;;15.40;45.00;;;;;;5059782;28;42902;-78
2023/12/18 12:26:05;;;;;;;;;;;15.40;45.50;;;;;;5067538;28;43411;-78
2023/12/18 12:28:31;;;;;;;;;;;15.50;45.50;;;;;;5048926;28;42851;-75
2023/12/18 12:30:57;;;;;;;;;;;15.40;46.10;;;;;;5070804;28;43412;-76
2023/12/18 12:33:22;;;;;;;;;;;15.40;46.00;;;;;;5073098;28;42969;-76
2023/12/18 12:35:48;;;;;;;;;;;15.50;45.80;;;;;;5066547;28;43034;-76
2023/12/18 12:38:16;;;;;;;;;;;15.70;45.70;;;;;;5067472;28;43721;-75
2023/12/18 12:40:42;;;;;;;;;;;15.60;46.00;;;;;;5064429;28;42961;-76
2023/12/18 12:43:10;;;;;;;;;;;15.50;45.80;;;;;;5067519;28;42898;-76
2023/12/18 12:45:36;;;;;;;;;;;15.40;45.70;;;;;;5067008;28;42888;-76
2023/12/18 12:48:03;;;;;;;;;;;15.50;46.30;;;;;;5066920;28;42938;-75
2023/12/18 12:50:29;;;;;;;;;;;15.50;46.10;;;;;;5065433;28;43036;-76
2023/12/18 12:52:56;;;;;;;;;;;15.40;46.00;;;;;;5059616;28;43009;-78
2023/12/18 12:55:22;;;;;;;;;;;15.50;45.40;;;;;;5065334;28;43382;-78
2023/12/18 12:57:47;;;;;;;;;;;15.50;45.10;;;;;;5066288;28;42894;-79
2023/12/18 13:00:18;;;;;;;;;;;15.60;45.30;;;;;;5064681;28;42795;-78
2023/12/18 13:02:43;;;;;;;;;;;15.50;45.70;;;;;;5065789;28;42887;-79
2023/12/18 13:05:09;;;;;;;;;;;15.60;45.50;;;;;;5047254;28;43831;-78
2023/12/18 13:07:34;;;;;;;;;;;15.40;46.10;;;;;;5065011;28;43009;-78
2023/12/18 13:10:03;;;;;;;;;;;15.50;46.40;;;;;;5065789;28;44219;-78
2023/12/18 13:12:29;;;;;;;;;;;12.70;44.40;;;;;;5064761;28;42835;-78
2023/12/18 13:14:55;;;;;;;;;;;15.50;46.30;;;;;;5064828;28;42952;-75
2023/12/18 13:17:21;;;;;;;;;;;15.50;45.80;;;;;;5066231;28;43025;-78
2023/12/18 13:19:46;;;;;;;;;;;15.50;46.30;;;;;;5066016;28;42922;-78
2023/12/18 13:22:15;;;;;;;;;;;15.60;46.00;;;;;;5066591;28;43144;-79
2023/12/18 13:24:40;;;;;;;;;;;15.60;46.10;;;;;;5047475;28;44882;-85
2023/12/18 13:27:06;;;;;;;;;;;15.60;46.20;;;;;;5066928;28;42993;-78
2023/12/18 13:29:35;;;;;;;;;;;15.90;46.50;;;;;;5067996;28;42940;-93
2023/12/18 13:32:01;;;;;;;;;;;15.60;46.30;;;;;;5069161;28;42852;-92
2023/12/18 13:34:26;;;;;;;;;;;15.70;47.10;;;;;;5066343;28;43459;-82
2023/12/18 13:36:53;;;;;;;;;;;15.70;47.00;;;;;;5065772;28;43004;-79
2023/12/18 13:39:18;;;;;;;;;;;15.90;47.00;;;;;;5066023;28;43503;-79
2023/12/18 13:41:44;;;;;;;;;;;15.80;46.50;;;;;;5066421;28;42997;-82
2023/12/18 13:44:11;;;;;;;;;;;15.70;47.00;;;;;;5066059;28;42930;-81
2023/12/18 13:46:37;;;;;;;;;;;15.70;47.20;;;;;;5062656;28;43226;-83
2023/12/18 13:49:02;;;;;;;;;;;15.80;47.10;;;;;;5065164;28;43360;-79
2023/12/18 13:51:32;;;;;;;;;;;15.70;47.20;;;;;;5065410;28;42937;-86
2023/12/18 13:53:58;;;;;;;;;;;15.80;46.20;;;;;;5063201;28;43561;-82
2023/12/18 13:56:26;;;;;;;;;;;15.80;46.90;;;;;;5063999;28;43187;-82
2023/12/18 13:58:52;;;;;;;;;;;15.80;47.50;;;;;;5064375;28;43824;-83
2023/12/18 14:01:17;;;;;;;;;;;15.90;47.50;;;;;;5063093;28;43035;-83
2023/12/18 14:03:43;;;;;;;;;;;15.90;47.70;;;;;;5047577;28;45753;-81
2023/12/18 14:06:09;;;;;;;;;;;16.00;47.20;;;;;;5066289;28;42929;-85
2023/12/18 14:08:34;;;;;;;;;;;16.00;47.30;;;;;;5065830;28;43366;-83